Terminal Aerodrome Forecast
Issued by NWS North Platte, NE

Home | Current Version | Previous Version | Text Only | Print | Product List | Glossary On
Versions: 1 2 3 4 5 6 7 8 9 10 11 12 13 14 15 16 17 18 19 20 21 22 23 24 25 26 27
000
FTUS43 KLBF 220520
TAFLBF
TAF
KLBF 220520Z 2206/2306 32004KT P6SM SCT090 BKN150
     FM221600 32008KT P6SM SCT200
     FM221800 32012KT P6SM FEW250
     FM222300 31008KT P6SM FEW250
     FM230300 30004KT P6SM SKC=

USA.gov is the U.S. government's official web portal to all federal, state and local government web resources and services.